createdAt,value
2018-07-23T00:00:39.458Z,934.39
2018-07-23T00:01:39.478Z,934.41
2018-07-23T00:02:39.570Z,934.39
2018-07-23T00:03:39.590Z,934.43
2018-07-23T00:04:39.628Z,934.38
2018-07-23T00:05:39.630Z,934.34
2018-07-23T00:06:39.714Z,934.37
2018-07-23T00:07:39.784Z,934.34
2018-07-23T00:08:39.786Z,934.38
2018-07-23T00:09:39.828Z,934.39
2018-07-23T00:10:39.883Z,934.35
2018-07-23T00:11:39.939Z,934.34
2018-07-23T00:12:39.971Z,934.34
2018-07-23T00:13:40.010Z,934.30
2018-07-23T00:14:40.070Z,934.33
2018-07-23T00:15:40.090Z,934.32
2018-07-23T00:16:40.141Z,934.28
2018-07-23T00:17:40.207Z,934.26
2018-07-23T00:18:40.231Z,934.36
2018-07-23T00:19:40.271Z,934.30
2018-07-23T00:20:40.339Z,934.35
2018-07-23T00:21:40.359Z,934.31
2018-07-23T00:22:40.408Z,934.34
2018-07-23T00:23:40.450Z,934.35
2018-07-23T00:24:40.482Z,934.30
2018-07-23T00:25:40.534Z,934.30
2018-07-23T00:26:40.600Z,934.40
2018-07-23T00:27:40.604Z,934.34
2018-07-23T00:28:40.661Z,934.43
2018-07-23T00:29:40.712Z,934.42
2018-07-23T00:30:40.732Z,934.43
2018-07-23T00:31:40.774Z,934.43
2018-07-23T00:32:40.832Z,934.41
2018-07-23T00:33:40.879Z,934.41
2018-07-23T00:34:40.893Z,934.41
2018-07-23T00:35:40.993Z,934.39
2018-07-23T00:36:41.043Z,934.37
2018-07-23T00:37:41.038Z,934.34
2018-07-23T00:38:41.150Z,934.34
2018-07-23T00:39:41.158Z,934.30
2018-07-23T00:40:41.228Z,934.31
2018-07-23T00:41:41.225Z,934.29
2018-07-23T00:42:41.292Z,934.32
2018-07-23T00:43:41.333Z,934.31
2018-07-23T00:44:41.345Z,934.35
2018-07-23T00:45:41.410Z,934.35
2018-07-23T00:46:41.455Z,934.37
2018-07-23T00:47:41.469Z,934.39
2018-07-23T00:48:41.554Z,934.43
2018-07-23T00:49:41.573Z,934.46
2018-07-23T00:50:41.600Z,934.43
2018-07-23T00:51:41.688Z,934.43
2018-07-23T00:52:41.709Z,934.46
2018-07-23T00:53:41.755Z,934.41
2018-07-23T00:54:41.792Z,934.41
2018-07-23T00:55:41.797Z,934.43
2018-07-23T00:56:41.864Z,934.47
2018-07-23T00:57:41.933Z,934.45
2018-07-23T00:58:41.969Z,934.43
2018-07-23T00:59:41.994Z,934.41
2018-07-23T01:00:42.094Z,934.38
2018-07-23T01:01:42.101Z,934.42
2018-07-23T01:02:42.149Z,934.36
2018-07-23T01:03:42.187Z,934.37
2018-07-23T01:04:42.253Z,934.39
2018-07-23T01:05:42.268Z,934.39
2018-07-23T01:06:42.314Z,934.36
2018-07-23T01:07:42.371Z,934.38
2018-07-23T01:08:42.381Z,934.40
2018-07-23T01:09:42.431Z,934.45
2018-07-23T01:10:42.499Z,934.42
2018-07-23T01:11:42.543Z,934.40
2018-07-23T01:12:42.571Z,934.37
2018-07-23T01:13:42.665Z,934.36
2018-07-23T01:14:42.661Z,934.41
2018-07-23T01:15:42.693Z,934.38
2018-07-23T01:16:42.727Z,934.41
2018-07-23T01:17:42.828Z,934.44
2018-07-23T01:18:42.838Z,934.42
2018-07-23T01:19:42.864Z,934.43
2018-07-23T01:20:42.908Z,934.47
2018-07-23T01:21:42.959Z,934.43
2018-07-23T01:22:43.020Z,934.43
2018-07-23T01:23:43.029Z,934.40
2018-07-23T01:24:43.074Z,934.40
2018-07-23T01:25:43.140Z,934.39
2018-07-23T01:26:43.193Z,934.42
2018-07-23T01:27:43.230Z,934.40
2018-07-23T01:28:43.251Z,934.39
2018-07-23T01:29:43.307Z,934.43
2018-07-23T01:30:43.396Z,934.42
2018-07-23T01:31:43.408Z,934.39
2018-07-23T01:32:43.455Z,934.40
2018-07-23T01:33:43.468Z,934.37
2018-07-23T01:34:43.567Z,934.34
2018-07-23T01:35:43.555Z,934.40
2018-07-23T01:36:43.576Z,934.40
2018-07-23T01:37:43.649Z,934.37
2018-07-23T01:38:43.698Z,934.38
2018-07-23T01:39:43.746Z,934.39
2018-07-23T01:40:43.783Z,934.40
2018-07-23T01:41:43.832Z,934.42
2018-07-23T01:42:43.880Z,934.43
2018-07-23T01:43:43.911Z,934.44
2018-07-23T01:44:43.955Z,934.43
2018-07-23T01:45:44.015Z,934.46
2018-07-23T01:46:44.022Z,934.43
2018-07-23T01:47:44.077Z,934.43
2018-07-23T01:48:44.142Z,934.46
2018-07-23T01:49:44.184Z,934.44
2018-07-23T01:50:44.196Z,934.44
2018-07-23T01:51:44.251Z,934.44
2018-07-23T01:52:44.301Z,934.45
2018-07-23T01:53:44.338Z,934.45
2018-07-23T01:54:44.431Z,934.48
2018-07-23T01:55:44.475Z,934.46
2018-07-23T01:56:44.480Z,934.49
2018-07-23T01:57:44.524Z,934.50
2018-07-23T01:58:44.549Z,934.48
2018-07-23T01:59:44.610Z,934.53
2018-07-23T02:00:44.628Z,934.54
2018-07-23T02:01:44.696Z,934.52
2018-07-23T02:02:44.749Z,934.56
2018-07-23T02:03:44.795Z,934.55
2018-07-23T02:04:44.822Z,934.54
2018-07-23T02:05:44.906Z,934.57
2018-07-23T02:06:44.916Z,934.53
2018-07-23T02:07:44.956Z,934.51
2018-07-23T02:08:45.211Z,934.53
2018-07-23T02:09:45.062Z,934.55
2018-07-23T02:10:45.104Z,934.50
2018-07-23T02:11:45.130Z,934.48
2018-07-23T02:12:45.186Z,934.51
2018-07-23T02:13:45.195Z,934.48
2018-07-23T02:14:45.306Z,934.55
2018-07-23T02:15:45.297Z,934.54
2018-07-23T02:16:45.405Z,934.56
2018-07-23T02:17:45.396Z,934.57
2018-07-23T02:18:45.436Z,934.60
2018-07-23T02:19:45.506Z,934.59
2018-07-23T02:20:45.570Z,934.62
2018-07-23T02:21:45.581Z,934.60
2018-07-23T02:22:45.614Z,934.56
2018-07-23T02:23:45.646Z,934.59
2018-07-23T02:24:45.706Z,934.54
2018-07-23T02:25:45.755Z,934.52
2018-07-23T02:26:45.977Z,934.52
2018-07-23T02:27:45.833Z,934.52
2018-07-23T02:28:45.861Z,934.56
2018-07-23T02:29:45.886Z,934.56
2018-07-23T02:30:45.976Z,934.55
2018-07-23T02:31:45.994Z,934.53
2018-07-23T02:32:46.029Z,934.53
2018-07-23T02:33:46.059Z,934.50
2018-07-23T02:34:46.144Z,934.49
2018-07-23T02:35:46.165Z,934.45
2018-07-23T02:36:46.225Z,934.45
2018-07-23T02:37:46.271Z,934.41
2018-07-23T02:38:46.333Z,934.40
2018-07-23T02:39:46.347Z,934.47
2018-07-23T02:40:46.382Z,934.41
2018-07-23T02:41:46.428Z,934.43
2018-07-23T02:42:46.473Z,934.40
2018-07-23T02:43:46.568Z,934.42
2018-07-23T02:44:46.549Z,934.40
2018-07-23T02:45:46.650Z,934.40
2018-07-23T02:46:46.663Z,934.43
2018-07-23T02:47:46.697Z,934.44
2018-07-23T02:48:46.768Z,934.46
2018-07-23T02:49:46.772Z,934.47
2018-07-23T02:50:46.817Z,934.47
2018-07-23T02:51:46.880Z,934.51
2018-07-23T02:52:46.928Z,934.49
2018-07-23T02:53:46.946Z,934.48
2018-07-23T02:54:47.179Z,934.51
2018-07-23T02:55:47.029Z,934.46
2018-07-23T02:56:47.084Z,934.45
2018-07-23T02:57:47.107Z,934.46
2018-07-23T02:58:47.168Z,934.41
2018-07-23T02:59:47.212Z,934.40
2018-07-23T03:00:47.242Z,934.34
2018-07-23T03:01:47.275Z,934.39
2018-07-23T03:02:47.367Z,934.40
2018-07-23T03:03:47.362Z,934.31
2018-07-23T03:04:47.418Z,934.35
2018-07-23T03:05:47.470Z,934.36
2018-07-23T03:06:47.703Z,934.34
2018-07-23T03:07:47.538Z,934.33
2018-07-23T03:08:47.614Z,934.36
2018-07-23T03:09:47.658Z,934.38
2018-07-23T03:10:47.671Z,934.37
2018-07-23T03:11:47.733Z,934.43
2018-07-23T03:12:47.777Z,934.39
2018-07-23T03:13:47.820Z,934.42
2018-07-23T03:14:47.844Z,934.37
2018-07-23T03:15:47.913Z,934.39
2018-07-23T03:16:47.927Z,934.40
2018-07-23T03:17:47.991Z,934.42
2018-07-23T03:18:48.022Z,934.44
2018-07-23T03:19:48.069Z,934.48
2018-07-23T03:20:48.104Z,934.54
2018-07-23T03:21:48.202Z,934.53
2018-07-23T03:22:48.206Z,934.51
2018-07-23T03:23:48.228Z,934.53
2018-07-23T03:24:48.304Z,934.57
2018-07-23T03:25:48.317Z,934.57
2018-07-23T03:26:48.369Z,934.54
2018-07-23T03:27:48.417Z,934.53
2018-07-23T03:28:48.454Z,934.55
2018-07-23T03:29:48.503Z,934.55
2018-07-23T03:30:48.541Z,934.56
2018-07-23T03:31:48.604Z,934.55
2018-07-23T03:32:48.671Z,934.55
2018-07-23T03:33:48.674Z,934.50
2018-07-23T03:34:48.721Z,934.51
2018-07-23T03:35:48.753Z,934.51
2018-07-23T03:36:48.774Z,934.39
2018-07-23T03:37:48.883Z,934.36
2018-07-23T03:38:48.877Z,934.34
2018-07-23T03:39:48.915Z,934.30
2018-07-23T03:40:48.989Z,934.25
2018-07-23T03:41:49.033Z,934.25
2018-07-23T03:42:49.066Z,934.26
2018-07-23T03:43:49.114Z,934.23
2018-07-23T03:44:49.141Z,934.25
2018-07-23T03:45:49.187Z,934.23
2018-07-23T03:46:49.206Z,934.23
2018-07-23T03:47:49.473Z,934.15
2018-07-23T03:48:49.325Z,934.20
2018-07-23T03:49:49.373Z,934.17
2018-07-23T03:50:49.382Z,934.08
2018-07-23T03:51:49.450Z,934.15
2018-07-23T03:52:49.491Z,934.09
2018-07-23T03:53:49.574Z,934.11
2018-07-23T03:54:49.556Z,934.13
2018-07-23T03:55:49.618Z,934.11
2018-07-23T03:56:49.633Z,934.14
2018-07-23T03:57:49.688Z,934.13
2018-07-23T03:58:49.967Z,934.10
2018-07-23T03:59:49.783Z,934.06
2018-07-23T04:00:49.817Z,934.03
2018-07-23T04:01:49.910Z,934.01
2018-07-23T04:02:49.926Z,934.03
2018-07-23T04:03:49.953Z,934.01
2018-07-23T04:04:50.064Z,933.96
2018-07-23T04:05:50.058Z,934.02
2018-07-23T04:06:50.082Z,934.02
2018-07-23T04:07:50.151Z,934.03
2018-07-23T04:08:50.171Z,934.11
2018-07-23T04:09:50.387Z,934.04
2018-07-23T04:10:50.238Z,934.03
2018-07-23T04:11:50.292Z,934.02
2018-07-23T04:12:50.378Z,934.03
2018-07-23T04:13:50.418Z,933.98
2018-07-23T04:14:50.444Z,934.00
2018-07-23T04:15:50.474Z,933.92
2018-07-23T04:16:50.496Z,933.97
2018-07-23T04:17:50.554Z,933.92
2018-07-23T04:18:50.590Z,933.93
2018-07-23T04:19:50.623Z,933.93
2018-07-23T04:20:50.683Z,933.96
2018-07-23T04:21:50.911Z,933.94
2018-07-23T04:22:50.763Z,933.99
2018-07-23T04:23:50.800Z,933.95
2018-07-23T04:24:50.844Z,934.02
2018-07-23T04:25:50.891Z,934.00
2018-07-23T04:26:50.929Z,933.99
2018-07-23T04:27:50.951Z,933.99
2018-07-23T04:28:50.993Z,933.99
2018-07-23T04:29:51.059Z,933.89
2018-07-23T04:30:51.147Z,933.94
2018-07-23T04:31:51.170Z,933.91
2018-07-23T04:32:51.432Z,933.88
2018-07-23T04:33:51.543Z,933.87
2018-07-23T04:34:51.364Z,933.87
2018-07-23T04:35:51.366Z,933.87
2018-07-23T04:36:51.397Z,933.85
2018-07-23T04:37:51.478Z,933.83
2018-07-23T04:38:51.489Z,933.80
2018-07-23T04:39:51.519Z,933.82
2018-07-23T04:40:51.777Z,933.74
2018-07-23T04:41:51.609Z,933.73
2018-07-23T04:42:51.877Z,933.67
2018-07-23T04:43:51.697Z,933.68
2018-07-23T04:44:51.761Z,933.63
2018-07-23T04:45:52.050Z,933.59
2018-07-23T04:46:51.823Z,933.57
2018-07-23T04:47:51.884Z,933.57
2018-07-23T04:48:51.925Z,933.61
2018-07-23T04:49:51.937Z,933.61
2018-07-23T04:50:51.983Z,933.57
2018-07-23T04:51:52.235Z,933.57
2018-07-23T04:52:52.079Z,933.58
2018-07-23T04:53:52.091Z,933.61
2018-07-23T04:54:52.169Z,933.60
2018-07-23T04:55:52.190Z,933.62
2018-07-23T04:56:52.650Z,933.66
2018-07-23T04:57:52.284Z,933.62
2018-07-23T04:58:52.354Z,933.63
2018-07-23T04:59:52.308Z,933.64
2018-07-23T05:00:52.598Z,933.66
2018-07-23T05:01:52.634Z,933.65
2018-07-23T05:02:52.476Z,933.64
2018-07-23T05:03:52.721Z,933.59
2018-07-23T05:04:52.609Z,933.62
2018-07-23T05:05:52.643Z,933.57
2018-07-23T05:06:52.621Z,933.61
2018-07-23T05:07:52.660Z,933.59
2018-07-23T05:08:52.759Z,933.60
2018-07-23T05:09:52.803Z,933.63
2018-07-23T05:10:54.016Z,933.64
2018-07-23T05:11:53.339Z,933.67
2018-07-23T05:12:52.927Z,933.69
2018-07-23T05:13:52.955Z,933.74
2018-07-23T05:14:53.018Z,933.78
2018-07-23T05:15:53.356Z,933.74
2018-07-23T05:16:53.085Z,933.74
2018-07-23T05:17:53.331Z,933.71
2018-07-23T05:18:53.381Z,933.69
2018-07-23T05:19:53.233Z,933.70
2018-07-23T05:20:53.267Z,933.66
2018-07-23T05:21:53.335Z,933.65
2018-07-23T05:22:53.331Z,933.62
2018-07-23T05:23:53.648Z,933.65
2018-07-23T05:24:53.437Z,933.61
2018-07-23T05:25:53.477Z,933.60
2018-07-23T05:26:53.717Z,933.55
2018-07-23T05:27:53.753Z,933.59
2018-07-23T05:28:53.590Z,933.59
2018-07-23T05:29:53.584Z,933.57
2018-07-23T05:30:53.662Z,933.59
2018-07-23T05:31:53.747Z,933.56
2018-07-23T05:32:53.768Z,933.56
2018-07-23T05:33:53.761Z,933.57
2018-07-23T05:34:54.015Z,933.54
2018-07-23T05:35:53.846Z,933.49
2018-07-23T05:36:53.915Z,933.48
2018-07-23T05:37:53.958Z,933.53
2018-07-23T05:38:54.014Z,933.54
2018-07-23T05:39:54.064Z,933.49
2018-07-23T05:40:54.114Z,933.52
2018-07-23T05:41:54.147Z,933.51
2018-07-23T05:42:54.232Z,933.54
2018-07-23T05:43:54.233Z,933.51
2018-07-23T05:44:54.327Z,933.52
2018-07-23T05:45:54.286Z,933.47
2018-07-23T05:46:54.612Z,933.44
2018-07-23T05:47:54.371Z,933.48
2018-07-23T05:48:54.435Z,933.43
2018-07-23T05:49:54.467Z,933.45
2018-07-23T05:50:54.570Z,933.44
2018-07-23T05:51:54.571Z,933.48
2018-07-23T05:52:54.581Z,933.44
2018-07-23T05:53:54.581Z,933.45
2018-07-23T05:54:54.650Z,933.45
2018-07-23T05:55:54.701Z,933.46
2018-07-23T05:56:54.721Z,933.45
2018-07-23T05:57:54.799Z,933.40
2018-07-23T05:58:54.887Z,933.45
2018-07-23T05:59:54.840Z,933.43
2018-07-23T06:00:54.954Z,933.45
2018-07-23T06:01:55.005Z,933.41
2018-07-23T06:02:55.005Z,933.44
2018-07-23T06:03:55.094Z,933.48
2018-07-23T06:04:55.083Z,933.47
2018-07-23T06:05:55.110Z,933.53
2018-07-23T06:06:55.364Z,933.51
2018-07-23T06:07:55.374Z,933.54
2018-07-23T06:08:55.272Z,933.55
2018-07-23T06:09:55.262Z,933.53
2018-07-23T06:10:55.319Z,933.50
2018-07-23T06:11:55.355Z,933.49
2018-07-23T06:12:55.419Z,933.48
2018-07-23T06:13:55.461Z,933.46
2018-07-23T06:14:55.505Z,933.48
2018-07-23T06:15:55.552Z,933.46
2018-07-23T06:16:55.593Z,933.45
2018-07-23T06:17:55.757Z,933.48
2018-07-23T06:18:55.861Z,933.46
2018-07-23T06:19:55.720Z,933.46
2018-07-23T06:20:55.783Z,933.49
2018-07-23T06:21:55.790Z,933.48
2018-07-23T06:22:55.858Z,933.47
2018-07-23T06:23:55.887Z,933.49
2018-07-23T06:24:56.047Z,933.46
2018-07-23T06:25:55.955Z,933.42
2018-07-23T06:26:56.002Z,933.46
2018-07-23T06:27:56.098Z,933.39
2018-07-23T06:28:56.097Z,933.46
2018-07-23T06:29:56.367Z,933.42
2018-07-23T06:30:56.167Z,933.39
2018-07-23T06:31:56.190Z,933.39
2018-07-23T06:32:56.256Z,933.36
2018-07-23T06:33:56.325Z,933.27
2018-07-23T06:34:56.340Z,933.31
2018-07-23T06:35:56.361Z,933.31
2018-07-23T06:36:56.466Z,933.35
2018-07-23T06:37:56.449Z,933.40
2018-07-23T06:38:56.518Z,933.35
2018-07-23T06:39:56.695Z,933.39
2018-07-23T06:40:56.600Z,933.37
2018-07-23T06:41:56.620Z,933.29
2018-07-23T06:42:56.686Z,933.38
2018-07-23T06:43:56.711Z,933.43
2018-07-23T06:44:56.971Z,933.33
2018-07-23T06:45:56.841Z,933.37
2018-07-23T06:46:56.872Z,933.41
2018-07-23T06:47:56.929Z,933.36
2018-07-23T06:48:56.923Z,933.37
2018-07-23T06:50:03.235Z,933.30
2018-07-23T06:50:57.150Z,933.30
2018-07-23T06:51:57.049Z,933.26
2018-07-23T06:52:57.096Z,933.28
2018-07-23T06:53:57.191Z,933.25
2018-07-23T06:54:57.185Z,933.30
2018-07-23T06:55:57.222Z,933.29
2018-07-23T06:56:57.492Z,933.25
2018-07-23T06:57:57.284Z,933.24
2018-07-23T06:58:57.345Z,933.27
2018-07-23T06:59:57.401Z,933.23
2018-07-23T07:00:57.442Z,933.28
2018-07-23T07:01:57.469Z,933.23
2018-07-23T07:02:57.563Z,933.28
2018-07-23T07:03:57.571Z,933.24
2018-07-23T07:04:57.657Z,933.26
2018-07-23T07:05:57.642Z,933.26
2018-07-23T07:06:57.884Z,933.24
2018-07-23T07:07:57.914Z,933.28
2018-07-23T07:08:57.785Z,933.22
2018-07-23T07:09:57.785Z,933.23
2018-07-23T07:10:57.890Z,933.20
2018-07-23T07:11:57.893Z,933.19
2018-07-23T07:12:57.929Z,933.21
2018-07-23T07:13:57.973Z,933.20
2018-07-23T07:14:58.011Z,933.21
2018-07-23T07:15:58.063Z,933.20
2018-07-23T07:16:58.100Z,933.20
2018-07-23T07:17:58.337Z,933.16
2018-07-23T07:18:58.178Z,933.24
2018-07-23T07:19:58.267Z,933.20
2018-07-23T07:20:58.288Z,933.28
2018-07-23T07:21:58.353Z,933.31
2018-07-23T07:22:58.602Z,933.31
2018-07-23T07:23:58.420Z,933.22
2018-07-23T07:24:58.485Z,933.22
2018-07-23T07:25:58.483Z,933.23
2018-07-23T07:26:58.568Z,933.17
2018-07-23T07:27:58.554Z,933.18
2018-07-23T07:28:58.661Z,933.21
2018-07-23T07:29:58.648Z,933.21
2018-07-23T07:30:58.741Z,933.24
2018-07-23T07:31:58.736Z,933.23
2018-07-23T07:32:58.971Z,933.22
2018-07-23T07:33:58.823Z,933.23
2018-07-23T07:34:58.844Z,933.27
2018-07-23T07:35:58.911Z,933.27
2018-07-23T07:36:58.934Z,933.26
2018-07-23T07:37:59.296Z,933.24
2018-07-23T07:38:59.019Z,933.24
2018-07-23T07:39:59.125Z,933.23
2018-07-23T07:40:59.120Z,933.24
2018-07-23T07:41:59.160Z,933.20
2018-07-23T07:42:59.219Z,933.19
2018-07-23T07:43:59.388Z,933.21
2018-07-23T07:44:59.305Z,933.20
2018-07-23T07:45:59.366Z,933.19
2018-07-23T07:46:59.415Z,933.21
2018-07-23T07:47:59.464Z,933.22
2018-07-23T07:48:59.473Z,933.22
2018-07-23T07:49:59.700Z,933.26
2018-07-23T07:50:59.538Z,933.24
2018-07-23T07:51:59.634Z,933.21
2018-07-23T07:52:59.638Z,933.27
2018-07-23T07:53:59.662Z,933.24
2018-07-23T07:54:59.882Z,933.25
2018-07-23T07:55:59.747Z,933.23
2018-07-23T07:56:59.782Z,933.20
2018-07-23T07:57:59.881Z,933.22
2018-07-23T07:58:59.882Z,933.22
2018-07-23T07:59:59.932Z,933.18
2018-07-23T08:01:00.014Z,933.22
2018-07-23T08:02:00.053Z,933.21
2018-07-23T08:03:00.080Z,933.25
2018-07-23T08:04:00.103Z,933.23
2018-07-23T08:05:00.337Z,933.21
2018-07-23T08:06:00.317Z,933.25
2018-07-23T08:07:00.252Z,933.23
2018-07-23T08:08:00.270Z,933.23
2018-07-23T08:09:00.294Z,933.28
2018-07-23T08:10:00.346Z,933.27
2018-07-23T08:11:00.368Z,933.25
2018-07-23T08:12:00.640Z,933.25
2018-07-23T08:13:00.469Z,933.23
2018-07-23T08:14:00.510Z,933.23
2018-07-23T08:15:00.592Z,933.24
2018-07-23T08:16:00.718Z,933.24
2018-07-23T08:17:00.798Z,933.28
2018-07-23T08:18:00.683Z,933.29
2018-07-23T08:19:00.754Z,933.30
2018-07-23T08:20:00.755Z,933.28
2018-07-23T08:21:00.819Z,933.30
2018-07-23T08:22:01.132Z,933.29
2018-07-23T08:23:01.141Z,933.25
2018-07-23T08:24:00.943Z,933.30
2018-07-23T08:25:01.010Z,933.33
2018-07-23T08:26:00.994Z,933.36
2018-07-23T08:27:01.100Z,933.40
2018-07-23T08:28:01.242Z,933.40
2018-07-23T08:29:01.154Z,933.35
2018-07-23T08:30:01.205Z,933.34
2018-07-23T08:31:01.227Z,933.36
2018-07-23T08:32:01.408Z,933.35
2018-07-23T08:33:01.327Z,933.35
2018-07-23T08:34:01.357Z,933.38
2018-07-23T08:35:01.399Z,933.39
2018-07-23T08:36:01.452Z,933.44
2018-07-23T08:37:01.519Z,933.47
2018-07-23T08:38:01.500Z,933.46
2018-07-23T08:39:01.565Z,933.45
2018-07-23T08:40:01.803Z,933.51
2018-07-23T08:41:01.689Z,933.48
2018-07-23T08:42:01.689Z,933.58
2018-07-23T08:43:01.773Z,933.55
2018-07-23T08:44:01.778Z,933.58
2018-07-23T08:45:01.850Z,933.61
2018-07-23T08:46:01.851Z,933.63
2018-07-23T08:47:01.914Z,933.66
2018-07-23T08:48:01.921Z,933.69
2018-07-23T08:49:02.000Z,933.71
2018-07-23T08:50:02.233Z,933.71
2018-07-23T08:51:02.053Z,933.74
2018-07-23T08:52:02.101Z,933.74
2018-07-23T08:53:02.185Z,933.74
2018-07-23T08:54:02.188Z,933.77
2018-07-23T08:55:02.395Z,933.79
2018-07-23T08:56:02.294Z,933.80
2018-07-23T08:57:02.330Z,933.82
2018-07-23T08:58:02.367Z,933.80
2018-07-23T08:59:02.386Z,933.81
2018-07-23T09:00:02.505Z,933.79
2018-07-23T09:01:02.676Z,933.79
2018-07-23T09:02:02.537Z,933.83
2018-07-23T09:03:02.556Z,933.81
2018-07-23T09:04:02.619Z,933.83
2018-07-23T09:05:02.665Z,933.86
2018-07-23T09:06:02.704Z,933.87
2018-07-23T09:07:02.749Z,933.88
2018-07-23T09:08:02.778Z,933.88
2018-07-23T09:09:02.836Z,933.95
2018-07-23T09:10:02.870Z,933.93
2018-07-23T09:11:02.980Z,933.95
2018-07-23T09:12:03.163Z,933.97
2018-07-23T09:13:03.240Z,933.97
2018-07-23T09:14:03.038Z,934.04
2018-07-23T09:15:03.088Z,933.99
2018-07-23T09:16:03.145Z,934.00
2018-07-23T09:17:03.165Z,934.02
2018-07-23T09:18:03.259Z,934.03
2018-07-23T09:19:03.261Z,934.04
2018-07-23T09:20:03.357Z,933.99
2018-07-23T09:21:03.320Z,934.01
2018-07-23T09:22:03.402Z,934.02
2018-07-23T09:23:03.424Z,934.04
2018-07-23T09:24:03.612Z,934.08
2018-07-23T09:25:03.730Z,934.06
2018-07-23T09:26:03.539Z,934.11
2018-07-23T09:27:03.598Z,934.18
2018-07-23T09:28:03.628Z,934.13
2018-07-23T09:29:03.678Z,934.12
2018-07-23T09:30:03.700Z,934.22
2018-07-23T09:31:03.765Z,934.23
2018-07-23T09:32:03.845Z,934.29
2018-07-23T09:33:03.833Z,934.29
2018-07-23T09:34:03.893Z,934.33
2018-07-23T09:35:04.136Z,934.31
2018-07-23T09:36:03.941Z,934.36
2018-07-23T09:37:04.015Z,934.35
2018-07-23T09:38:04.083Z,934.42
2018-07-23T09:39:04.095Z,934.39
2018-07-23T09:40:04.132Z,934.41
2018-07-23T09:41:04.192Z,934.45
2018-07-23T09:42:04.214Z,934.48
2018-07-23T09:43:04.246Z,934.46
2018-07-23T09:44:04.292Z,934.49
2018-07-23T09:45:04.361Z,934.52
2018-07-23T09:46:04.544Z,934.50
2018-07-23T09:47:04.434Z,934.50
2018-07-23T09:48:04.486Z,934.52
2018-07-23T09:49:04.518Z,934.54
2018-07-23T09:50:04.544Z,934.54
2018-07-23T09:51:04.612Z,934.56
2018-07-23T09:52:04.855Z,934.59
2018-07-23T09:53:04.696Z,934.58
2018-07-23T09:54:04.756Z,934.58
2018-07-23T09:55:04.767Z,934.59
2018-07-23T09:56:04.802Z,934.55
2018-07-23T09:57:04.848Z,934.55
2018-07-23T09:58:05.054Z,934.55
2018-07-23T09:59:05.002Z,934.55
2018-07-23T10:00:04.998Z,934.51
2018-07-23T10:01:05.027Z,934.54
2018-07-23T10:02:05.059Z,934.55
2018-07-23T10:03:05.256Z,934.55
2018-07-23T10:04:05.136Z,934.61
2018-07-23T10:05:05.226Z,934.63
2018-07-23T10:06:05.218Z,934.64
2018-07-23T10:07:05.256Z,934.67
2018-07-23T10:08:05.462Z,934.70
2018-07-23T10:09:05.357Z,934.67
2018-07-23T10:10:05.389Z,934.67
2018-07-23T10:11:05.442Z,934.69
2018-07-23T10:12:05.494Z,934.67
2018-07-23T10:13:05.532Z,934.69
2018-07-23T10:14:05.609Z,934.74
2018-07-23T10:15:05.613Z,934.73
2018-07-23T10:16:05.652Z,934.70
2018-07-23T10:17:05.686Z,934.73
2018-07-23T10:18:05.950Z,934.76
2018-07-23T10:19:05.773Z,934.74
2018-07-23T10:20:05.817Z,934.78
2018-07-23T10:21:05.877Z,934.84
2018-07-23T10:22:05.905Z,934.81
2018-07-23T10:23:05.958Z,934.83
2018-07-23T10:24:05.998Z,934.86
2018-07-23T10:25:06.178Z,934.86
2018-07-23T10:26:06.097Z,934.82
2018-07-23T10:27:06.113Z,934.83
2018-07-23T10:28:06.163Z,934.84
2018-07-23T10:29:06.210Z,934.80
2018-07-23T10:30:06.219Z,934.83
2018-07-23T10:31:06.309Z,934.83
2018-07-23T10:32:06.321Z,934.86
2018-07-23T10:33:06.360Z,934.88
2018-07-23T10:34:06.427Z,934.90
2018-07-23T10:35:06.477Z,934.90
2018-07-23T10:36:06.711Z,934.96
2018-07-23T10:37:06.638Z,934.92
2018-07-23T10:38:06.613Z,934.92
2018-07-23T10:39:06.687Z,934.88
2018-07-23T10:40:06.643Z,934.92
2018-07-23T10:41:06.808Z,934.95
2018-07-23T10:42:06.993Z,934.88
2018-07-23T10:43:06.842Z,934.98
2018-07-23T10:44:06.888Z,934.98
2018-07-23T10:45:06.937Z,935.02
2018-07-23T10:46:06.943Z,935.01
2018-07-23T10:47:06.982Z,935.04
2018-07-23T10:48:07.010Z,935.04
2018-07-23T10:49:07.049Z,935.09
2018-07-23T10:50:07.125Z,935.08
2018-07-23T10:51:07.130Z,935.07
2018-07-23T10:52:07.377Z,935.05
2018-07-23T10:53:07.220Z,935.09
2018-07-23T10:54:07.294Z,935.13
2018-07-23T10:55:07.310Z,935.12
2018-07-23T10:56:07.352Z,935.12
2018-07-23T10:57:07.644Z,935.11
2018-07-23T10:58:07.408Z,935.13
2018-07-23T10:59:07.467Z,935.17
2018-07-23T11:00:07.524Z,935.21
2018-07-23T11:01:07.581Z,935.15
2018-07-23T11:02:07.602Z,935.13
2018-07-23T11:03:07.913Z,935.18
2018-07-23T11:04:07.715Z,935.17
2018-07-23T11:05:07.734Z,935.19
2018-07-23T11:06:07.802Z,935.24
2018-07-23T11:07:07.839Z,935.25
2018-07-23T11:08:08.087Z,935.29
2018-07-23T11:09:07.933Z,935.30
2018-07-23T11:10:07.975Z,935.25
2018-07-23T11:11:08.014Z,935.29
2018-07-23T11:12:08.055Z,935.32
2018-07-23T11:13:08.116Z,935.30
2018-07-23T11:14:08.277Z,935.32
2018-07-23T11:15:08.187Z,935.35
2018-07-23T11:16:08.298Z,935.39
2018-07-23T11:17:08.294Z,935.40
2018-07-23T11:18:08.330Z,935.36
2018-07-23T11:19:08.408Z,935.42
2018-07-23T11:20:08.415Z,935.45
2018-07-23T11:21:08.476Z,935.49
2018-07-23T11:22:08.525Z,935.50
2018-07-23T11:23:08.537Z,935.48
2018-07-23T11:24:08.596Z,935.51
2018-07-23T11:25:38.595Z,935.48
2018-07-23T11:26:08.729Z,935.51
2018-07-23T11:27:08.762Z,935.45
2018-07-23T11:28:08.795Z,935.51
2018-07-23T11:29:08.837Z,935.52
2018-07-23T11:30:08.886Z,935.56
2018-07-23T11:31:08.971Z,935.57
2018-07-23T11:32:09.087Z,935.59
2018-07-23T11:33:09.014Z,935.58
2018-07-23T11:34:09.077Z,935.60
2018-07-23T11:35:09.335Z,935.57
2018-07-23T11:36:09.164Z,935.56
2018-07-23T11:37:09.214Z,935.56
2018-07-23T11:38:09.285Z,935.57
2018-07-23T11:39:09.290Z,935.62
2018-07-23T11:40:09.347Z,935.63
2018-07-23T11:41:09.546Z,935.58
2018-07-23T11:42:09.432Z,935.62
2018-07-23T11:43:09.484Z,935.67
2018-07-23T11:44:09.550Z,935.68
2018-07-23T11:45:09.636Z,935.71
2018-07-23T11:46:24.418Z,935.70
2018-07-23T11:47:09.863Z,935.77
2018-07-23T11:48:09.796Z,935.75
2018-07-23T11:49:09.798Z,935.79
2018-07-23T11:50:09.829Z,935.78
2018-07-23T11:51:09.913Z,935.76
2018-07-23T11:52:14.353Z,935.76
2018-07-23T11:53:10.203Z,935.79
2018-07-23T11:54:10.029Z,935.78
2018-07-23T11:55:10.075Z,935.79
2018-07-23T11:56:10.119Z,935.80
2018-07-23T11:57:10.192Z,935.76
2018-07-23T11:58:10.449Z,935.78
2018-07-23T11:59:10.273Z,935.81
2018-07-23T12:00:10.324Z,935.80
2018-07-23T12:01:10.363Z,935.82
2018-07-23T12:02:10.410Z,935.86
2018-07-23T12:03:10.471Z,935.89
2018-07-23T12:04:10.737Z,935.85
2018-07-23T12:05:10.576Z,935.86
2018-07-23T12:06:10.631Z,935.87
2018-07-23T12:07:10.674Z,935.90
2018-07-23T12:08:11.020Z,935.85
2018-07-23T12:09:10.785Z,935.84
2018-07-23T12:10:10.811Z,935.90
2018-07-23T12:11:10.879Z,935.85
2018-07-23T12:12:10.945Z,935.87
2018-07-23T12:13:10.999Z,935.91
2018-07-23T12:14:11.018Z,935.89
2018-07-23T12:15:11.093Z,935.93
2018-07-23T12:16:11.144Z,935.88
2018-07-23T12:17:11.235Z,935.87
2018-07-23T12:18:11.210Z,935.88
2018-07-23T12:19:11.318Z,935.93
2018-07-23T12:20:11.331Z,935.94
2018-07-23T12:21:11.378Z,935.94
2018-07-23T12:22:11.445Z,935.94
2018-07-23T12:23:11.693Z,935.96
2018-07-23T12:24:11.554Z,935.95
2018-07-23T12:25:11.599Z,936.00
2018-07-23T12:26:11.784Z,935.97
2018-07-23T12:27:11.699Z,936.00
2018-07-23T12:28:11.756Z,935.99
2018-07-23T12:29:11.990Z,935.92